Lake Pleasant, New York
Current Conditions -  °F | °C
As of 5:55 PM on Tuesday 27 Jan 2015 (Local Time) from KNY0 Reporting Station
Overcast Overcast  
Wind Chill: 14°   Ceiling: 3500
Heat Index: 14°   Visibility: 10mi
Dew Point:   Wind: 3mph
Humidity: 57%   Direction: 280°W
Pressure: 29.78"   Gusts: NA
Location:  43.47°N, 74.41°W
Report Text: KNY0 272255Z AUTO 28003KT 10SM BKN035 BKN043 OVC049 M10/M17 A2978 RMK AO2 T11001170
Loading
Personal Weather Stations






























Interactive Weather Map New forecast layout! Learn more

10-Day Weather Forecast

Advertisements
Track Severe Weather on mobile